SBPG/PNG METAR and TAF weather

Enter ICAO airport designator
Station Type Date Time Source
SBPG METAR 2018/12/17 17:00 UTC NOAA

SBPG 171700Z 29012KT 9999 SCT017 FEW020TCU 33/18 Q1016


Station Type Date Time Source
SBPG Decoded METAR 2018/12/17 17:00 UTC NOAA

Paranagua, Brazil (SBPG) 25-31S 048-31W
Dec 17, 2018 - 12:00 PM EST / 2018.12.17 1700 UTC
Wind: from the WNW (290 degrees) at 14 MPH (12 KT):0
Visibility: greater than 7 mile(s):0
Sky conditions: partly cloudy
Weather: Towering cumulus clouds observed
Temperature: 91 F (33 C)
Dew Point: 64 F (18 C)
Relative Humidity: 41%
Pressure (altimeter): 30.00 in. Hg (1016 hPa)
ob: SBPG 171700Z 29012KT 9999 SCT017 FEW020TCU 33/18 Q1016
cycle: 17

Station Type Date Time Source
SBPG TAF UTC NOAA

Error!


Example: see airport list